PAED METAR and TAF weather

Enter ICAO airport designator
Station Type Date Time Source
PAED METAR 2019/06/16 12:06 UTC NOAA

PAED 161206Z 00000KT 10SM FEW080 OVC110 11/10 A2980 RMK AO2A DZB01E06 SLP087 $


Station Type Date Time Source
PAED Decoded METAR 2019/06/16 12:06 UTC NOAA

Anchorage, Elmendorf Air Force Base, AK, United States (PAED) 61-15-11N 149-47-38W 59M
Jun 16, 2019 - 08:06 AM EDT / 2019.06.16 1206 UTC
Wind: Calm:0
Visibility: 10 mile(s):0
Sky conditions: overcast
Temperature: 51 F (11 C)
Dew Point: 50 F (10 C)
Relative Humidity: 93%
Pressure (altimeter): 29.8 in. Hg (1009 hPa)
ob: PAED 161206Z 00000KT 10SM FEW080 OVC110 11/10 A2980 RMK AO2A DZB01E06 SLP087
cycle: 12

Station Type Date Time Source
PAED TAF 2019/06/16 11:06 UTC NOAA

TAF TAF PAED 161100Z 1611/1717 VRB06KT 9999 VCSH SCT045 BKN080 620802 QNH2976INS
TEMPO 1611/1615 9000 -SHRA BKN060
BECMG 1622/1623 VRB06KT 9000 -SHRA SCT050 BKN065 620703 QNH2965INS TX21/1701Z TN11/1613Z

Example: see airport list